HKLO 230700Z 12009KT CAVOK 30/15 Q1012
From batch tds/metars/production/2022/9/23/h07_m55_metars.cache.csv.gz
Observed at (9 days ago)
Identifier HKLO
talk